sensor_id;sensor_type;location;lat;lon;timestamp;temperature;humidity
25983;DHT22;13773;48.868;10.730;2023-11-21T00:02:20;5.80;99.90
25983;DHT22;13773;48.868;10.730;2023-11-21T00:04:46;5.80;99.90
25983;DHT22;13773;48.868;10.730;2023-11-21T00:07:13;5.80;99.90
25983;DHT22;13773;48.868;10.730;2023-11-21T00:09:40;5.80;99.90
25983;DHT22;13773;48.868;10.730;2023-11-21T00:12:07;5.80;99.90
25983;DHT22;13773;48.868;10.730;2023-11-21T00:14:36;5.80;99.90
25983;DHT22;13773;48.868;10.730;2023-11-21T00:17:02;5.80;99.90
25983;DHT22;13773;48.868;10.730;2023-11-21T00:19:28;5.80;99.90
25983;DHT22;13773;48.868;10.730;2023-11-21T00:21:53;5.80;99.90
25983;DHT22;13773;48.868;10.730;2023-11-21T00:24:19;5.80;99.90
25983;DHT22;13773;48.868;10.730;2023-11-21T00:26:45;5.80;99.90
25983;DHT22;13773;48.868;10.730;2023-11-21T00:29:11;5.80;99.90
25983;DHT22;13773;48.868;10.730;2023-11-21T00:31:37;7.60;99.90
25983;DHT22;13773;48.868;10.730;2023-11-21T00:34:04;5.80;99.90
25983;DHT22;13773;48.868;10.730;2023-11-21T00:36:31;5.80;99.90
25983;DHT22;13773;48.868;10.730;2023-11-21T00:38:57;5.80;99.90
25983;DHT22;13773;48.868;10.730;2023-11-21T00:41:23;5.80;99.90
25983;DHT22;13773;48.868;10.730;2023-11-21T00:43:49;5.80;99.90
25983;DHT22;13773;48.868;10.730;2023-11-21T00:46:14;5.80;99.90
25983;DHT22;13773;48.868;10.730;2023-11-21T00:48:40;5.70;99.90
25983;DHT22;13773;48.868;10.730;2023-11-21T00:51:06;5.80;99.90
25983;DHT22;13773;48.868;10.730;2023-11-21T00:53:32;5.80;99.90
25983;DHT22;13773;48.868;10.730;2023-11-21T00:55:58;5.80;99.90
25983;DHT22;13773;48.868;10.730;2023-11-21T00:58:24;5.80;99.90
25983;DHT22;13773;48.868;10.730;2023-11-21T01:00:50;5.70;99.90
25983;DHT22;13773;48.868;10.730;2023-11-21T01:03:15;5.80;99.90
25983;DHT22;13773;48.868;10.730;2023-11-21T01:05:41;5.70;99.90
25983;DHT22;13773;48.868;10.730;2023-11-21T01:08:07;5.70;99.90
25983;DHT22;13773;48.868;10.730;2023-11-21T01:10:32;5.70;99.90
25983;DHT22;13773;48.868;10.730;2023-11-21T01:12:59;5.70;99.90
25983;DHT22;13773;48.868;10.730;2023-11-21T01:15:25;5.70;99.90
25983;DHT22;13773;48.868;10.730;2023-11-21T01:17:51;5.70;99.90
25983;DHT22;13773;48.868;10.730;2023-11-21T01:20:17;5.70;99.90
25983;DHT22;13773;48.868;10.730;2023-11-21T01:22:43;5.70;99.90
25983;DHT22;13773;48.868;10.730;2023-11-21T01:25:10;5.70;99.90
25983;DHT22;13773;48.868;10.730;2023-11-21T01:27:36;5.70;99.90
25983;DHT22;13773;48.868;10.730;2023-11-21T01:30:03;5.70;99.90
25983;DHT22;13773;48.868;10.730;2023-11-21T01:32:29;5.70;99.90
25983;DHT22;13773;48.868;10.730;2023-11-21T01:34:55;5.80;99.90
25983;DHT22;13773;48.868;10.730;2023-11-21T01:37:21;5.70;99.90
25983;DHT22;13773;48.868;10.730;2023-11-21T01:39:47;5.70;99.90
25983;DHT22;13773;48.868;10.730;2023-11-21T01:42:13;5.80;99.90
25983;DHT22;13773;48.868;10.730;2023-11-21T01:44:39;5.70;99.90
25983;DHT22;13773;48.868;10.730;2023-11-21T01:47:06;5.80;99.90
25983;DHT22;13773;48.868;10.730;2023-11-21T01:49:32;5.80;99.90
25983;DHT22;13773;48.868;10.730;2023-11-21T01:51:59;5.80;99.90
25983;DHT22;13773;48.868;10.730;2023-11-21T01:54:25;5.80;99.90
25983;DHT22;13773;48.868;10.730;2023-11-21T01:56:51;5.80;99.90
25983;DHT22;13773;48.868;10.730;2023-11-21T01:59:21;5.80;99.90
25983;DHT22;13773;48.868;10.730;2023-11-21T02:01:48;5.80;99.90
25983;DHT22;13773;48.868;10.730;2023-11-21T02:04:15;5.80;99.90
25983;DHT22;13773;48.868;10.730;2023-11-21T02:06:41;5.80;99.90
25983;DHT22;13773;48.868;10.730;2023-11-21T02:09:07;5.80;99.90
25983;DHT22;13773;48.868;10.730;2023-11-21T02:11:34;5.80;99.90
25983;DHT22;13773;48.868;10.730;2023-11-21T02:14:00;5.80;99.90
25983;DHT22;13773;48.868;10.730;2023-11-21T02:16:26;5.80;99.90
25983;DHT22;13773;48.868;10.730;2023-11-21T02:18:52;5.70;99.90
25983;DHT22;13773;48.868;10.730;2023-11-21T02:21:18;5.70;99.90
25983;DHT22;13773;48.868;10.730;2023-11-21T02:23:45;5.70;99.90
25983;DHT22;13773;48.868;10.730;2023-11-21T02:26:12;5.70;99.90
25983;DHT22;13773;48.868;10.730;2023-11-21T02:28:39;5.70;99.90
25983;DHT22;13773;48.868;10.730;2023-11-21T02:31:05;5.80;99.90
25983;DHT22;13773;48.868;10.730;2023-11-21T02:33:31;5.80;99.90
25983;DHT22;13773;48.868;10.730;2023-11-21T02:36:00;5.80;99.90
25983;DHT22;13773;48.868;10.730;2023-11-21T02:38:26;5.80;99.90
25983;DHT22;13773;48.868;10.730;2023-11-21T02:40:51;5.80;99.90
25983;DHT22;13773;48.868;10.730;2023-11-21T02:43:17;5.80;99.90
25983;DHT22;13773;48.868;10.730;2023-11-21T02:45:43;5.80;99.90
25983;DHT22;13773;48.868;10.730;2023-11-21T02:48:08;5.80;99.90
25983;DHT22;13773;48.868;10.730;2023-11-21T02:50:34;5.70;99.90
25983;DHT22;13773;48.868;10.730;2023-11-21T02:53:01;5.70;99.90
25983;DHT22;13773;48.868;10.730;2023-11-21T02:55:27;5.80;99.90
25983;DHT22;13773;48.868;10.730;2023-11-21T02:57:53;5.80;99.90
25983;DHT22;13773;48.868;10.730;2023-11-21T03:00:18;5.80;99.90
25983;DHT22;13773;48.868;10.730;2023-11-21T03:02:44;5.80;99.90
25983;DHT22;13773;48.868;10.730;2023-11-21T03:05:10;5.80;99.90
25983;DHT22;13773;48.868;10.730;2023-11-21T03:07:37;5.80;99.90
25983;DHT22;13773;48.868;10.730;2023-11-21T03:10:03;5.80;99.90
25983;DHT22;13773;48.868;10.730;2023-11-21T03:12:29;5.80;99.90
25983;DHT22;13773;48.868;10.730;2023-11-21T03:14:55;5.80;99.90
25983;DHT22;13773;48.868;10.730;2023-11-21T03:17:21;5.80;99.90
25983;DHT22;13773;48.868;10.730;2023-11-21T03:19:47;5.80;99.90
25983;DHT22;13773;48.868;10.730;2023-11-21T03:22:13;5.80;99.90
25983;DHT22;13773;48.868;10.730;2023-11-21T03:24:38;5.80;99.90
25983;DHT22;13773;48.868;10.730;2023-11-21T03:27:04;5.70;99.90
25983;DHT22;13773;48.868;10.730;2023-11-21T03:29:30;5.80;99.90
25983;DHT22;13773;48.868;10.730;2023-11-21T03:31:56;5.80;99.90
25983;DHT22;13773;48.868;10.730;2023-11-21T03:34:28;5.80;99.90
25983;DHT22;13773;48.868;10.730;2023-11-21T03:36:53;5.80;99.90
25983;DHT22;13773;48.868;10.730;2023-11-21T03:39:22;5.80;99.90
25983;DHT22;13773;48.868;10.730;2023-11-21T03:41:48;5.80;99.90
25983;DHT22;13773;48.868;10.730;2023-11-21T03:44:14;5.80;99.90
25983;DHT22;13773;48.868;10.730;2023-11-21T03:46:40;5.80;99.90
25983;DHT22;13773;48.868;10.730;2023-11-21T03:49:05;5.80;99.90
25983;DHT22;13773;48.868;10.730;2023-11-21T03:51:31;5.80;99.90
25983;DHT22;13773;48.868;10.730;2023-11-21T03:53:57;5.80;99.90
25983;DHT22;13773;48.868;10.730;2023-11-21T03:56:23;5.80;99.90
25983;DHT22;13773;48.868;10.730;2023-11-21T03:58:49;5.80;99.90
25983;DHT22;13773;48.868;10.730;2023-11-21T04:01:24;5.80;99.90
25983;DHT22;13773;48.868;10.730;2023-11-21T04:03:50;5.90;99.90
25983;DHT22;13773;48.868;10.730;2023-11-21T04:06:17;5.90;99.90
25983;DHT22;13773;48.868;10.730;2023-11-21T04:08:46;5.80;99.90
25983;DHT22;13773;48.868;10.730;2023-11-21T04:11:12;5.90;99.90
25983;DHT22;13773;48.868;10.730;2023-11-21T04:13:39;5.80;99.90
25983;DHT22;13773;48.868;10.730;2023-11-21T04:16:06;5.80;99.90
25983;DHT22;13773;48.868;10.730;2023-11-21T04:18:32;5.80;99.90
25983;DHT22;13773;48.868;10.730;2023-11-21T04:20:57;5.80;99.90
25983;DHT22;13773;48.868;10.730;2023-11-21T04:23:23;5.70;99.90
25983;DHT22;13773;48.868;10.730;2023-11-21T04:25:49;5.70;99.90
25983;DHT22;13773;48.868;10.730;2023-11-21T04:28:14;5.70;99.90
25983;DHT22;13773;48.868;10.730;2023-11-21T04:30:40;5.80;99.90
25983;DHT22;13773;48.868;10.730;2023-11-21T04:33:06;5.80;99.90
25983;DHT22;13773;48.868;10.730;2023-11-21T04:35:33;5.80;99.90
25983;DHT22;13773;48.868;10.730;2023-11-21T04:37:58;5.80;99.90
25983;DHT22;13773;48.868;10.730;2023-11-21T04:40:25;5.80;99.90
25983;DHT22;13773;48.868;10.730;2023-11-21T04:42:51;5.80;99.90
25983;DHT22;13773;48.868;10.730;2023-11-21T04:45:17;5.80;99.90
25983;DHT22;13773;48.868;10.730;2023-11-21T04:47:42;5.80;99.90
25983;DHT22;13773;48.868;10.730;2023-11-21T04:50:09;5.80;99.90
25983;DHT22;13773;48.868;10.730;2023-11-21T04:52:35;5.80;99.90
25983;DHT22;13773;48.868;10.730;2023-11-21T04:55:00;5.80;99.90
25983;DHT22;13773;48.868;10.730;2023-11-21T04:57:27;5.80;99.90
25983;DHT22;13773;48.868;10.730;2023-11-21T04:59:54;5.80;99.90
25983;DHT22;13773;48.868;10.730;2023-11-21T05:02:20;5.80;99.90
25983;DHT22;13773;48.868;10.730;2023-11-21T05:04:47;5.90;99.90
25983;DHT22;13773;48.868;10.730;2023-11-21T05:07:13;5.90;99.90
25983;DHT22;13773;48.868;10.730;2023-11-21T05:09:45;5.80;99.90
25983;DHT22;13773;48.868;10.730;2023-11-21T05:12:14;5.90;99.90
25983;DHT22;13773;48.868;10.730;2023-11-21T05:14:40;5.90;99.90
25983;DHT22;13773;48.868;10.730;2023-11-21T05:17:07;5.90;99.90
25983;DHT22;13773;48.868;10.730;2023-11-21T05:19:34;5.90;99.90
25983;DHT22;13773;48.868;10.730;2023-11-21T05:22:00;6.80;99.90
25983;DHT22;13773;48.868;10.730;2023-11-21T05:24:26;6.00;99.90
25983;DHT22;13773;48.868;10.730;2023-11-21T05:26:52;6.00;99.90
25983;DHT22;13773;48.868;10.730;2023-11-21T05:29:18;5.90;99.90
25983;DHT22;13773;48.868;10.730;2023-11-21T05:31:44;5.90;99.90
25983;DHT22;13773;48.868;10.730;2023-11-21T05:34:09;5.90;99.90
25983;DHT22;13773;48.868;10.730;2023-11-21T05:36:35;6.00;99.90
25983;DHT22;13773;48.868;10.730;2023-11-21T05:39:00;6.00;99.90
25983;DHT22;13773;48.868;10.730;2023-11-21T05:41:28;5.90;99.90
25983;DHT22;13773;48.868;10.730;2023-11-21T05:43:54;6.00;99.90
25983;DHT22;13773;48.868;10.730;2023-11-21T05:46:19;6.00;99.90
25983;DHT22;13773;48.868;10.730;2023-11-21T05:48:45;6.00;99.90
25983;DHT22;13773;48.868;10.730;2023-11-21T05:51:11;6.00;99.90
25983;DHT22;13773;48.868;10.730;2023-11-21T05:53:39;6.00;99.90
25983;DHT22;13773;48.868;10.730;2023-11-21T05:56:05;6.00;99.90
25983;DHT22;13773;48.868;10.730;2023-11-21T05:58:30;6.00;99.90
25983;DHT22;13773;48.868;10.730;2023-11-21T06:00:56;5.90;99.90
25983;DHT22;13773;48.868;10.730;2023-11-21T06:03:23;5.90;99.90
25983;DHT22;13773;48.868;10.730;2023-11-21T06:05:48;6.00;99.90
25983;DHT22;13773;48.868;10.730;2023-11-21T06:08:14;5.90;99.90
25983;DHT22;13773;48.868;10.730;2023-11-21T06:10:42;6.00;99.90
25983;DHT22;13773;48.868;10.730;2023-11-21T06:13:09;6.00;99.90
25983;DHT22;13773;48.868;10.730;2023-11-21T06:15:35;6.00;99.90
25983;DHT22;13773;48.868;10.730;2023-11-21T06:18:01;6.00;99.90
25983;DHT22;13773;48.868;10.730;2023-11-21T06:20:27;5.90;99.90
25983;DHT22;13773;48.868;10.730;2023-11-21T06:22:54;6.00;99.90
25983;DHT22;13773;48.868;10.730;2023-11-21T06:25:20;6.00;99.90
25983;DHT22;13773;48.868;10.730;2023-11-21T06:27:47;5.90;99.90
25983;DHT22;13773;48.868;10.730;2023-11-21T06:30:13;6.00;99.90
25983;DHT22;13773;48.868;10.730;2023-11-21T06:32:42;6.00;99.90
25983;DHT22;13773;48.868;10.730;2023-11-21T06:35:11;6.00;99.90
25983;DHT22;13773;48.868;10.730;2023-11-21T06:37:38;6.00;99.90
25983;DHT22;13773;48.868;10.730;2023-11-21T06:40:04;6.00;99.90
25983;DHT22;13773;48.868;10.730;2023-11-21T06:42:30;6.00;99.90
25983;DHT22;13773;48.868;10.730;2023-11-21T06:44:57;6.00;99.90
25983;DHT22;13773;48.868;10.730;2023-11-21T06:47:23;6.00;99.90
25983;DHT22;13773;48.868;10.730;2023-11-21T06:49:53;6.00;99.90
25983;DHT22;13773;48.868;10.730;2023-11-21T06:52:19;6.00;99.90
25983;DHT22;13773;48.868;10.730;2023-11-21T06:54:45;5.90;99.90
25983;DHT22;13773;48.868;10.730;2023-11-21T06:57:12;5.90;99.90
25983;DHT22;13773;48.868;10.730;2023-11-21T06:59:38;5.80;99.90
25983;DHT22;13773;48.868;10.730;2023-11-21T07:02:04;5.80;99.90
25983;DHT22;13773;48.868;10.730;2023-11-21T07:04:33;5.80;99.90
25983;DHT22;13773;48.868;10.730;2023-11-21T07:06:59;5.90;99.90
25983;DHT22;13773;48.868;10.730;2023-11-21T07:09:25;5.90;99.90
25983;DHT22;13773;48.868;10.730;2023-11-21T07:11:55;5.90;99.90
25983;DHT22;13773;48.868;10.730;2023-11-21T07:14:21;5.90;99.90
25983;DHT22;13773;48.868;10.730;2023-11-21T07:16:47;6.00;99.90
25983;DHT22;13773;48.868;10.730;2023-11-21T07:19:12;6.00;99.90
25983;DHT22;13773;48.868;10.730;2023-11-21T07:21:39;6.10;99.90
25983;DHT22;13773;48.868;10.730;2023-11-21T07:24:06;6.10;99.90
25983;DHT22;13773;48.868;10.730;2023-11-21T07:26:33;6.20;99.90
25983;DHT22;13773;48.868;10.730;2023-11-21T07:29:00;6.20;99.90
25983;DHT22;13773;48.868;10.730;2023-11-21T07:31:26;6.30;99.90
25983;DHT22;13773;48.868;10.730;2023-11-21T07:33:51;6.30;99.90
25983;DHT22;13773;48.868;10.730;2023-11-21T07:36:18;6.40;99.90
25983;DHT22;13773;48.868;10.730;2023-11-21T07:38:44;6.50;99.90
25983;DHT22;13773;48.868;10.730;2023-11-21T07:41:10;6.40;99.90
25983;DHT22;13773;48.868;10.730;2023-11-21T07:43:36;6.50;99.90
25983;DHT22;13773;48.868;10.730;2023-11-21T07:46:05;6.50;99.90
25983;DHT22;13773;48.868;10.730;2023-11-21T07:48:31;6.50;99.90
25983;DHT22;13773;48.868;10.730;2023-11-21T07:50:57;6.60;99.90
25983;DHT22;13773;48.868;10.730;2023-11-21T07:53:27;6.60;99.90
25983;DHT22;13773;48.868;10.730;2023-11-21T07:55:54;6.60;99.90
25983;DHT22;13773;48.868;10.730;2023-11-21T07:58:20;6.70;99.90
25983;DHT22;13773;48.868;10.730;2023-11-21T08:00:46;6.70;99.90
25983;DHT22;13773;48.868;10.730;2023-11-21T08:03:15;6.70;99.90
25983;DHT22;13773;48.868;10.730;2023-11-21T08:05:42;6.80;99.90
25983;DHT22;13773;48.868;10.730;2023-11-21T08:08:07;6.80;99.90
25983;DHT22;13773;48.868;10.730;2023-11-21T08:10:33;6.90;99.90
25983;DHT22;13773;48.868;10.730;2023-11-21T08:12:59;6.90;99.90
25983;DHT22;13773;48.868;10.730;2023-11-21T08:15:25;6.90;99.90
25983;DHT22;13773;48.868;10.730;2023-11-21T08:17:50;6.90;99.90
25983;DHT22;13773;48.868;10.730;2023-11-21T08:20:16;6.90;99.90
25983;DHT22;13773;48.868;10.730;2023-11-21T08:22:44;7.00;99.90
25983;DHT22;13773;48.868;10.730;2023-11-21T08:25:10;7.00;99.90
25983;DHT22;13773;48.868;10.730;2023-11-21T08:27:35;7.10;99.90
25983;DHT22;13773;48.868;10.730;2023-11-21T08:30:02;7.10;99.90
25983;DHT22;13773;48.868;10.730;2023-11-21T08:32:29;7.10;99.90
25983;DHT22;13773;48.868;10.730;2023-11-21T08:34:57;7.30;99.90
25983;DHT22;13773;48.868;10.730;2023-11-21T08:37:23;7.30;99.90
25983;DHT22;13773;48.868;10.730;2023-11-21T08:39:49;7.40;99.90
25983;DHT22;13773;48.868;10.730;2023-11-21T08:42:15;7.50;99.90
25983;DHT22;13773;48.868;10.730;2023-11-21T08:44:41;7.50;99.90
25983;DHT22;13773;48.868;10.730;2023-11-21T08:47:07;7.60;99.90
25983;DHT22;13773;48.868;10.730;2023-11-21T08:49:33;7.60;99.90
25983;DHT22;13773;48.868;10.730;2023-11-21T08:51:58;7.60;99.90
25983;DHT22;13773;48.868;10.730;2023-11-21T08:54:25;7.60;99.90
25983;DHT22;13773;48.868;10.730;2023-11-21T08:56:54;7.70;99.90
25983;DHT22;13773;48.868;10.730;2023-11-21T08:59:20;7.70;99.90
25983;DHT22;13773;48.868;10.730;2023-11-21T09:01:47;7.70;99.90
25983;DHT22;13773;48.868;10.730;2023-11-21T09:04:12;7.70;99.90
25983;DHT22;13773;48.868;10.730;2023-11-21T09:06:42;7.80;99.90
25983;DHT22;13773;48.868;10.730;2023-11-21T09:09:07;7.80;99.90
25983;DHT22;13773;48.868;10.730;2023-11-21T09:11:36;7.70;99.90
25983;DHT22;13773;48.868;10.730;2023-11-21T09:14:02;7.70;99.90
25983;DHT22;13773;48.868;10.730;2023-11-21T09:16:28;7.70;99.90
25983;DHT22;13773;48.868;10.730;2023-11-21T09:18:54;7.90;99.90
25983;DHT22;13773;48.868;10.730;2023-11-21T09:21:20;7.90;99.90
25983;DHT22;13773;48.868;10.730;2023-11-21T09:23:46;7.90;99.90
25983;DHT22;13773;48.868;10.730;2023-11-21T09:26:11;7.90;99.90
25983;DHT22;13773;48.868;10.730;2023-11-21T09:28:37;8.00;99.90
25983;DHT22;13773;48.868;10.730;2023-11-21T09:31:08;8.00;99.90
25983;DHT22;13773;48.868;10.730;2023-11-21T09:33:34;7.90;99.90
25983;DHT22;13773;48.868;10.730;2023-11-21T09:36:00;8.00;99.90
25983;DHT22;13773;48.868;10.730;2023-11-21T09:38:26;8.10;99.90
25983;DHT22;13773;48.868;10.730;2023-11-21T09:40:54;8.10;99.90
25983;DHT22;13773;48.868;10.730;2023-11-21T09:43:20;7.90;99.90
25983;DHT22;13773;48.868;10.730;2023-11-21T09:45:51;7.80;99.90
25983;DHT22;13773;48.868;10.730;2023-11-21T09:48:20;7.90;99.90
25983;DHT22;13773;48.868;10.730;2023-11-21T09:50:47;7.80;99.90
25983;DHT22;13773;48.868;10.730;2023-11-21T09:53:22;7.80;99.90
25983;DHT22;13773;48.868;10.730;2023-11-21T09:55:52;7.70;99.90
25983;DHT22;13773;48.868;10.730;2023-11-21T09:58:18;7.80;99.90
25983;DHT22;13773;48.868;10.730;2023-11-21T10:00:49;8.00;99.90
25983;DHT22;13773;48.868;10.730;2023-11-21T10:03:15;8.00;99.90
25983;DHT22;13773;48.868;10.730;2023-11-21T10:05:45;8.00;99.90
25983;DHT22;13773;48.868;10.730;2023-11-21T10:08:15;8.00;99.90
25983;DHT22;13773;48.868;10.730;2023-11-21T10:10:45;8.10;99.90
25983;DHT22;13773;48.868;10.730;2023-11-21T10:13:12;8.10;99.90
25983;DHT22;13773;48.868;10.730;2023-11-21T10:15:38;8.20;99.90
25983;DHT22;13773;48.868;10.730;2023-11-21T10:18:07;8.20;99.90
25983;DHT22;13773;48.868;10.730;2023-11-21T10:20:33;8.10;99.90
25983;DHT22;13773;48.868;10.730;2023-11-21T10:22:59;8.20;99.90
25983;DHT22;13773;48.868;10.730;2023-11-21T10:25:27;8.20;99.90
25983;DHT22;13773;48.868;10.730;2023-11-21T10:27:58;8.30;99.90
25983;DHT22;13773;48.868;10.730;2023-11-21T10:30:36;8.20;99.90
25983;DHT22;13773;48.868;10.730;2023-11-21T10:33:06;8.00;99.90
25983;DHT22;13773;48.868;10.730;2023-11-21T10:35:45;8.00;99.90
25983;DHT22;13773;48.868;10.730;2023-11-21T10:38:17;8.00;99.90
25983;DHT22;13773;48.868;10.730;2023-11-21T10:40:43;8.00;99.90
25983;DHT22;13773;48.868;10.730;2023-11-21T10:43:11;8.00;99.90
25983;DHT22;13773;48.868;10.730;2023-11-21T10:45:38;8.00;99.90
25983;DHT22;13773;48.868;10.730;2023-11-21T10:48:13;8.10;99.90
25983;DHT22;13773;48.868;10.730;2023-11-21T10:50:43;8.20;99.90
25983;DHT22;13773;48.868;10.730;2023-11-21T10:53:09;8.30;99.90
25983;DHT22;13773;48.868;10.730;2023-11-21T10:55:37;8.40;99.90
25983;DHT22;13773;48.868;10.730;2023-11-21T10:58:03;8.50;99.90
25983;DHT22;13773;48.868;10.730;2023-11-21T11:00:30;8.60;99.90
25983;DHT22;13773;48.868;10.730;2023-11-21T11:02:56;8.80;99.90
25983;DHT22;13773;48.868;10.730;2023-11-21T11:05:28;9.00;99.90
25983;DHT22;13773;48.868;10.730;2023-11-21T11:08:05;9.00;99.90
25983;DHT22;13773;48.868;10.730;2023-11-21T11:10:33;9.00;99.90
25983;DHT22;13773;48.868;10.730;2023-11-21T11:12:59;9.20;99.90
25983;DHT22;13773;48.868;10.730;2023-11-21T11:15:26;9.10;99.90
25983;DHT22;13773;48.868;10.730;2023-11-21T11:17:52;9.10;99.90
25983;DHT22;13773;48.868;10.730;2023-11-21T11:20:27;9.10;99.90
25983;DHT22;13773;48.868;10.730;2023-11-21T11:28:38;8.90;99.90
25983;DHT22;13773;48.868;10.730;2023-11-21T11:34:41;9.30;99.90
25983;DHT22;13773;48.868;10.730;2023-11-21T11:37:09;9.30;99.90
25983;DHT22;13773;48.868;10.730;2023-11-21T11:39:37;9.30;99.90
25983;DHT22;13773;48.868;10.730;2023-11-21T11:42:05;9.40;99.90
25983;DHT22;13773;48.868;10.730;2023-11-21T11:47:20;9.50;99.90
25983;DHT22;13773;48.868;10.730;2023-11-21T11:50:00;9.40;99.90
25983;DHT22;13773;48.868;10.730;2023-11-21T11:55:07;9.20;99.90
25983;DHT22;13773;48.868;10.730;2023-11-21T11:57:36;9.10;99.90
25983;DHT22;13773;48.868;10.730;2023-11-21T12:02:38;9.00;99.90
25983;DHT22;13773;48.868;10.730;2023-11-21T12:05:12;8.90;99.90
25983;DHT22;13773;48.868;10.730;2023-11-21T12:10:22;8.70;99.90
25983;DHT22;13773;48.868;10.730;2023-11-21T12:12:54;8.60;99.90
25983;DHT22;13773;48.868;10.730;2023-11-21T12:15:21;8.50;99.90
25983;DHT22;13773;48.868;10.730;2023-11-21T12:17:47;8.40;99.90
25983;DHT22;13773;48.868;10.730;2023-11-21T12:20:15;8.40;99.90
25983;DHT22;13773;48.868;10.730;2023-11-21T12:22:44;8.30;99.90
25983;DHT22;13773;48.868;10.730;2023-11-21T12:25:16;8.20;99.90
25983;DHT22;13773;48.868;10.730;2023-11-21T12:27:51;8.10;99.90
25983;DHT22;13773;48.868;10.730;2023-11-21T12:30:19;8.10;99.90
25983;DHT22;13773;48.868;10.730;2023-11-21T12:32:48;8.20;99.90
25983;DHT22;13773;48.868;10.730;2023-11-21T12:35:14;8.10;99.90
25983;DHT22;13773;48.868;10.730;2023-11-21T12:37:42;8.00;99.90
25983;DHT22;13773;48.868;10.730;2023-11-21T12:40:10;8.10;99.90
25983;DHT22;13773;48.868;10.730;2023-11-21T12:42:48;8.00;99.90
25983;DHT22;13773;48.868;10.730;2023-11-21T12:47:42;7.80;99.90
25983;DHT22;13773;48.868;10.730;2023-11-21T12:50:08;7.70;99.90
25983;DHT22;13773;48.868;10.730;2023-11-21T12:52:43;7.70;99.90
25983;DHT22;13773;48.868;10.730;2023-11-21T12:55:14;7.80;99.90
25983;DHT22;13773;48.868;10.730;2023-11-21T12:57:42;7.80;99.90
25983;DHT22;13773;48.868;10.730;2023-11-21T13:00:09;7.80;99.90
25983;DHT22;13773;48.868;10.730;2023-11-21T13:02:40;7.70;99.90
25983;DHT22;13773;48.868;10.730;2023-11-21T13:05:08;7.70;99.90
25983;DHT22;13773;48.868;10.730;2023-11-21T13:07:44;7.60;99.90
25983;DHT22;13773;48.868;10.730;2023-11-21T13:10:13;7.60;99.90
25983;DHT22;13773;48.868;10.730;2023-11-21T13:12:46;7.60;99.90
25983;DHT22;13773;48.868;10.730;2023-11-21T13:15:14;7.50;99.90
25983;DHT22;13773;48.868;10.730;2023-11-21T13:17:46;7.40;99.90
25983;DHT22;13773;48.868;10.730;2023-11-21T13:20:12;7.60;99.90
25983;DHT22;13773;48.868;10.730;2023-11-21T13:22:52;7.40;99.90
25983;DHT22;13773;48.868;10.730;2023-11-21T13:25:28;7.40;99.90
25983;DHT22;13773;48.868;10.730;2023-11-21T13:28:02;7.50;99.90
25983;DHT22;13773;48.868;10.730;2023-11-21T13:30:29;7.50;99.90
25983;DHT22;13773;48.868;10.730;2023-11-21T13:33:02;7.50;99.90
25983;DHT22;13773;48.868;10.730;2023-11-21T13:35:32;7.50;99.90
25983;DHT22;13773;48.868;10.730;2023-11-21T13:38:08;7.60;99.90
25983;DHT22;13773;48.868;10.730;2023-11-21T13:40:35;7.40;99.90
25983;DHT22;13773;48.868;10.730;2023-11-21T13:43:13;7.50;99.90
25983;DHT22;13773;48.868;10.730;2023-11-21T13:45:42;7.50;99.90
25983;DHT22;13773;48.868;10.730;2023-11-21T13:48:09;7.50;99.90
25983;DHT22;13773;48.868;10.730;2023-11-21T13:50:42;7.50;99.90
25983;DHT22;13773;48.868;10.730;2023-11-21T13:53:14;7.50;99.90
25983;DHT22;13773;48.868;10.730;2023-11-21T13:55:52;7.50;99.90
25983;DHT22;13773;48.868;10.730;2023-11-21T13:58:23;7.50;99.90
25983;DHT22;13773;48.868;10.730;2023-11-21T14:01:00;7.50;99.90
25983;DHT22;13773;48.868;10.730;2023-11-21T14:03:27;7.50;99.90
25983;DHT22;13773;48.868;10.730;2023-11-21T14:06:05;7.40;99.90
25983;DHT22;13773;48.868;10.730;2023-11-21T14:08:42;7.40;99.90
25983;DHT22;13773;48.868;10.730;2023-11-21T14:11:08;7.50;99.90
25983;DHT22;13773;48.868;10.730;2023-11-21T14:13:36;7.50;99.90
25983;DHT22;13773;48.868;10.730;2023-11-21T14:16:03;7.40;99.90
25983;DHT22;13773;48.868;10.730;2023-11-21T14:18:32;7.30;99.90
25983;DHT22;13773;48.868;10.730;2023-11-21T14:21:04;7.30;99.90
25983;DHT22;13773;48.868;10.730;2023-11-21T14:23:31;7.20;99.90
25983;DHT22;13773;48.868;10.730;2023-11-21T14:25:58;7.10;99.90
25983;DHT22;13773;48.868;10.730;2023-11-21T14:28:26;7.10;99.90
25983;DHT22;13773;48.868;10.730;2023-11-21T14:30:52;7.10;99.90
25983;DHT22;13773;48.868;10.730;2023-11-21T14:33:18;7.00;99.90
25983;DHT22;13773;48.868;10.730;2023-11-21T14:35:43;7.10;99.90
25983;DHT22;13773;48.868;10.730;2023-11-21T14:38:10;7.10;99.90
25983;DHT22;13773;48.868;10.730;2023-11-21T14:40:36;7.10;99.90
25983;DHT22;13773;48.868;10.730;2023-11-21T14:43:02;7.10;99.90
25983;DHT22;13773;48.868;10.730;2023-11-21T14:45:32;7.20;99.90
25983;DHT22;13773;48.868;10.730;2023-11-21T14:47:58;7.30;99.90
25983;DHT22;13773;48.868;10.730;2023-11-21T14:50:51;7.30;99.90
25983;DHT22;13773;48.868;10.730;2023-11-21T14:53:17;7.20;99.90
25983;DHT22;13773;48.868;10.730;2023-11-21T14:56:03;7.30;99.90
25983;DHT22;13773;48.868;10.730;2023-11-21T14:58:29;7.20;99.90
25983;DHT22;13773;48.868;10.730;2023-11-21T15:00:56;7.10;99.90
25983;DHT22;13773;48.868;10.730;2023-11-21T15:03:24;7.10;99.90
25983;DHT22;13773;48.868;10.730;2023-11-21T15:05:59;7.10;99.90
25983;DHT22;13773;48.868;10.730;2023-11-21T15:08:40;7.10;99.90
25983;DHT22;13773;48.868;10.730;2023-11-21T15:11:08;7.10;99.90
25983;DHT22;13773;48.868;10.730;2023-11-21T15:13:40;7.00;99.90
25983;DHT22;13773;48.868;10.730;2023-11-21T15:16:07;7.10;99.90
25983;DHT22;13773;48.868;10.730;2023-11-21T15:18:34;7.10;99.90
25983;DHT22;13773;48.868;10.730;2023-11-21T15:21:01;7.00;99.90
25983;DHT22;13773;48.868;10.730;2023-11-21T15:23:29;7.00;99.90
25983;DHT22;13773;48.868;10.730;2023-11-21T15:25:57;7.00;99.90
25983;DHT22;13773;48.868;10.730;2023-11-21T15:28:23;7.00;99.90
25983;DHT22;13773;48.868;10.730;2023-11-21T15:30:50;6.90;99.90
25983;DHT22;13773;48.868;10.730;2023-11-21T15:33:16;6.90;99.90
25983;DHT22;13773;48.868;10.730;2023-11-21T15:35:43;6.90;99.90
25983;DHT22;13773;48.868;10.730;2023-11-21T15:38:08;6.90;99.90
25983;DHT22;13773;48.868;10.730;2023-11-21T15:40:34;6.80;99.90
25983;DHT22;13773;48.868;10.730;2023-11-21T15:43:00;6.80;99.90
25983;DHT22;13773;48.868;10.730;2023-11-21T15:45:28;6.80;99.90
25983;DHT22;13773;48.868;10.730;2023-11-21T15:47:54;6.70;99.90
25983;DHT22;13773;48.868;10.730;2023-11-21T15:50:21;6.70;99.90
25983;DHT22;13773;48.868;10.730;2023-11-21T15:52:47;6.70;99.90
25983;DHT22;13773;48.868;10.730;2023-11-21T15:55:13;6.60;99.90